createdAt,value
2023-09-25T00:00:52.876Z,16.90
2023-09-25T00:03:21.359Z,16.00
2023-09-25T00:05:49.365Z,17.30
2023-09-25T00:08:17.807Z,16.00
2023-09-25T00:10:46.197Z,16.00
2023-09-25T00:13:16.017Z,16.30
2023-09-25T00:15:45.407Z,18.00
2023-09-25T00:18:15.538Z,15.90
2023-09-25T00:20:43.633Z,15.90
2023-09-25T00:23:11.586Z,15.80
2023-09-25T00:25:39.499Z,15.80
2023-09-25T00:28:08.651Z,15.80
2023-09-25T00:30:39.457Z,15.70
2023-09-25T00:33:07.797Z,15.70
2023-09-25T00:35:36.273Z,15.70
2023-09-25T00:38:05.125Z,15.70
2023-09-25T00:40:33.535Z,15.70
2023-09-25T00:43:01.434Z,16.50
2023-09-25T00:45:30.464Z,15.60
2023-09-25T00:48:00.653Z,15.60
2023-09-25T00:50:32.645Z,15.60
2023-09-25T00:53:04.873Z,15.60
2023-09-25T00:55:34.430Z,15.50
2023-09-25T00:58:02.980Z,15.50
2023-09-25T01:00:31.502Z,15.50
2023-09-25T01:03:00.862Z,15.40
2023-09-25T01:05:29.456Z,15.40
2023-09-25T01:07:57.446Z,15.30
2023-09-25T01:10:26.110Z,15.30
2023-09-25T01:12:54.722Z,16.10
2023-09-25T01:15:23.048Z,15.90
2023-09-25T01:17:51.592Z,15.20
2023-09-25T01:20:21.314Z,16.30
2023-09-25T01:22:51.532Z,15.20
2023-09-25T01:25:22.388Z,15.20
2023-09-25T01:27:50.894Z,15.20
2023-09-25T01:30:20.717Z,16.30
2023-09-25T01:32:50.874Z,15.20
2023-09-25T01:35:20.795Z,15.20
2023-09-25T01:37:51.077Z,15.20
2023-09-25T01:40:20.077Z,16.20
2023-09-25T01:42:49.071Z,15.10
2023-09-25T01:45:19.181Z,15.10
2023-09-25T01:47:51.263Z,15.10
2023-09-25T01:50:20.267Z,16.30
2023-09-25T01:52:50.309Z,16.60
2023-09-25T01:55:20.164Z,16.30
2023-09-25T01:57:48.561Z,15.00
2023-09-25T02:00:19.793Z,15.00
2023-09-25T02:02:48.752Z,14.90
2023-09-25T02:05:17.474Z,15.00
2023-09-25T02:07:45.744Z,16.40
2023-09-25T02:10:14.287Z,16.10
2023-09-25T02:12:44.235Z,16.20
2023-09-25T02:15:12.356Z,14.90
2023-09-25T02:17:40.854Z,14.90
2023-09-25T02:20:21.561Z,16.20
2023-09-25T02:22:50.726Z,14.90
2023-09-25T02:25:18.887Z,14.90
2023-09-25T02:27:48.956Z,14.80
2023-09-25T02:30:17.567Z,15.70
2023-09-25T02:32:47.118Z,14.80
2023-09-25T02:35:15.582Z,14.80
2023-09-25T02:37:46.183Z,14.70
2023-09-25T02:40:15.064Z,14.70
2023-09-25T02:42:44.070Z,14.70
2023-09-25T02:45:13.574Z,14.70
2023-09-25T02:47:41.574Z,14.90
2023-09-25T02:50:12.458Z,16.60
2023-09-25T02:52:40.350Z,14.60
2023-09-25T02:55:08.918Z,15.60
2023-09-25T02:57:37.351Z,14.50
2023-09-25T03:00:13.136Z,14.50
2023-09-25T03:02:42.964Z,14.40
2023-09-25T03:05:13.196Z,15.00
2023-09-25T03:07:41.318Z,14.40
2023-09-25T03:10:10.405Z,14.40
2023-09-25T03:12:39.052Z,14.30
2023-09-25T03:15:08.786Z,14.30
2023-09-25T03:17:37.865Z,14.30
2023-09-25T03:20:16.861Z,14.30
2023-09-25T03:22:56.464Z,14.30
2023-09-25T03:25:25.125Z,14.30
2023-09-25T03:27:53.486Z,14.30
2023-09-25T03:30:21.534Z,14.30
2023-09-25T03:32:53.525Z,16.10
2023-09-25T03:35:23.020Z,14.30
2023-09-25T03:37:51.395Z,16.70
2023-09-25T03:40:19.298Z,14.20
2023-09-25T03:42:47.763Z,14.30
2023-09-25T03:45:16.307Z,14.20
2023-09-25T03:47:44.293Z,14.20
2023-09-25T03:50:13.595Z,14.20
2023-09-25T03:52:44.160Z,14.10
2023-09-25T03:55:12.932Z,14.10
2023-09-25T03:57:40.968Z,14.10
2023-09-25T04:00:10.377Z,14.10
2023-09-25T04:02:38.394Z,14.00
2023-09-25T04:05:07.265Z,14.00
2023-09-25T04:07:35.707Z,14.60
2023-09-25T04:10:08.844Z,14.00
2023-09-25T04:12:36.829Z,14.00
2023-09-25T04:15:06.522Z,14.00
2023-09-25T04:17:35.303Z,14.00
2023-09-25T04:20:03.844Z,14.00
2023-09-25T04:22:32.446Z,14.00
2023-09-25T04:25:00.535Z,13.90
2023-09-25T04:27:30.614Z,13.90
2023-09-25T04:29:59.027Z,14.00
2023-09-25T04:32:28.123Z,14.00
2023-09-25T04:34:56.359Z,15.30
2023-09-25T04:37:25.200Z,13.90
2023-09-25T04:39:53.073Z,13.90
2023-09-25T04:42:23.113Z,13.90
2023-09-25T04:44:52.415Z,15.40
2023-09-25T04:47:20.818Z,13.90
2023-09-25T04:49:49.853Z,13.80
2023-09-25T04:52:18.289Z,13.80
2023-09-25T04:54:46.787Z,13.80
2023-09-25T04:57:15.647Z,13.80
2023-09-25T04:59:44.828Z,13.80
2023-09-25T05:02:14.540Z,13.80
2023-09-25T05:04:42.958Z,13.80
2023-09-25T05:07:10.917Z,13.70
2023-09-25T05:09:39.104Z,13.80
2023-09-25T05:12:07.840Z,14.50
2023-09-25T05:14:35.816Z,13.70
2023-09-25T05:17:05.944Z,14.80
2023-09-25T05:19:35.338Z,13.70
2023-09-25T05:22:03.291Z,13.70
2023-09-25T05:24:31.494Z,14.90
2023-09-25T05:26:59.897Z,13.60
2023-09-25T05:29:28.313Z,13.60
2023-09-25T05:31:56.676Z,13.60
2023-09-25T05:34:25.071Z,13.50
2023-09-25T05:36:54.384Z,13.50
2023-09-25T05:39:26.005Z,14.40
2023-09-25T05:41:53.969Z,15.20
2023-09-25T05:44:22.417Z,13.50
2023-09-25T05:46:50.370Z,13.40
2023-09-25T05:49:18.322Z,13.40
2023-09-25T05:51:46.823Z,13.40
2023-09-25T05:54:16.636Z,13.40
2023-09-25T05:56:45.532Z,13.90
2023-09-25T05:59:14.614Z,13.30
2023-09-25T06:01:43.740Z,13.40
2023-09-25T06:04:12.798Z,14.50
2023-09-25T06:06:41.318Z,13.40
2023-09-25T06:09:17.856Z,13.40
2023-09-25T06:11:47.702Z,13.40
2023-09-25T06:14:15.641Z,13.40
2023-09-25T06:16:44.165Z,13.40
2023-09-25T06:19:13.960Z,14.90
2023-09-25T06:21:42.482Z,13.60
2023-09-25T06:24:11.388Z,15.90
2023-09-25T06:26:40.868Z,13.60
2023-09-25T06:29:11.508Z,14.10
2023-09-25T06:31:49.952Z,13.60
2023-09-25T06:34:27.055Z,13.60
2023-09-25T06:36:55.836Z,13.60
2023-09-25T06:39:24.588Z,13.60
2023-09-25T06:41:52.768Z,13.60
2023-09-25T06:44:22.593Z,13.60
2023-09-25T06:46:51.395Z,14.90
2023-09-25T06:49:21.344Z,15.70
2023-09-25T06:51:49.493Z,14.80
2023-09-25T06:54:19.074Z,13.70
2023-09-25T06:56:47.074Z,13.60
2023-09-25T06:59:15.489Z,13.70
2023-09-25T07:01:45.568Z,13.70
2023-09-25T07:04:13.803Z,13.70
2023-09-25T07:06:42.344Z,13.80
2023-09-25T07:09:10.337Z,15.20
2023-09-25T07:11:38.810Z,13.80
2023-09-25T07:14:07.853Z,13.80
2023-09-25T07:16:37.112Z,13.80
2023-09-25T07:19:09.748Z,13.90
2023-09-25T07:21:38.363Z,14.10
2023-09-25T07:24:07.120Z,14.00
2023-09-25T07:26:35.117Z,14.00
2023-09-25T07:29:03.312Z,14.50
2023-09-25T07:31:31.760Z,15.40
2023-09-25T07:33:59.948Z,14.80
2023-09-25T07:36:30.303Z,15.10
2023-09-25T07:38:58.305Z,14.40
2023-09-25T07:41:26.363Z,14.40
2023-09-25T07:43:58.404Z,14.30
2023-09-25T07:46:28.106Z,16.40
2023-09-25T07:48:57.520Z,14.40
2023-09-25T07:51:28.110Z,14.50
2023-09-25T07:54:00.493Z,15.30
2023-09-25T07:56:28.578Z,14.60
2023-09-25T07:58:57.539Z,14.70
2023-09-25T08:01:30.635Z,14.70
2023-09-25T08:03:59.916Z,14.80
2023-09-25T08:06:28.765Z,14.90
2023-09-25T08:08:58.759Z,14.90
2023-09-25T08:11:26.814Z,15.00
2023-09-25T08:13:55.456Z,15.00
2023-09-25T08:16:24.767Z,17.40
2023-09-25T08:18:53.660Z,15.20
2023-09-25T08:21:22.346Z,16.30
2023-09-25T08:23:50.328Z,15.40
2023-09-25T08:26:21.050Z,17.10
2023-09-25T08:28:49.174Z,15.50
2023-09-25T08:31:17.810Z,15.60
2023-09-25T08:33:45.809Z,15.60
2023-09-25T08:36:13.732Z,15.70
2023-09-25T08:38:42.132Z,15.80
2023-09-25T08:41:11.844Z,15.80
2023-09-25T08:43:44.704Z,15.90
2023-09-25T08:46:13.728Z,17.50
2023-09-25T08:48:42.333Z,17.60
2023-09-25T08:51:10.474Z,16.10
2023-09-25T08:53:39.161Z,16.40
2023-09-25T08:56:08.490Z,16.70
2023-09-25T08:58:36.782Z,16.40
2023-09-25T09:01:06.737Z,16.80
2023-09-25T09:03:35.958Z,17.70
2023-09-25T09:06:05.697Z,17.20
2023-09-25T09:08:33.644Z,16.70
2023-09-25T09:11:11.724Z,16.70
2023-09-25T09:13:45.909Z,18.20
2023-09-25T09:16:16.676Z,18.00
2023-09-25T09:18:45.677Z,16.90
2023-09-25T09:21:28.139Z,17.30
2023-09-25T09:23:58.597Z,17.10
2023-09-25T09:26:27.797Z,17.20
2023-09-25T09:28:56.228Z,17.90
2023-09-25T09:31:25.566Z,17.80
2023-09-25T09:33:56.423Z,18.50
2023-09-25T09:36:25.439Z,17.40
2023-09-25T09:38:55.905Z,17.50
2023-09-25T09:41:24.358Z,18.30
2023-09-25T09:43:54.347Z,17.60
2023-09-25T09:46:28.551Z,18.60
2023-09-25T09:48:59.299Z,18.10
2023-09-25T09:51:29.593Z,17.80
2023-09-25T09:54:04.155Z,17.90
2023-09-25T09:56:33.190Z,18.00
2023-09-25T09:59:02.867Z,18.00
2023-09-25T10:01:35.205Z,18.30
2023-09-25T10:04:05.225Z,18.70
2023-09-25T10:06:37.964Z,18.20
2023-09-25T10:09:11.491Z,18.50
2023-09-25T10:11:39.461Z,19.00
2023-09-25T10:14:10.697Z,19.60
2023-09-25T10:16:59.714Z,19.30
2023-09-25T10:19:50.921Z,19.10
2023-09-25T10:22:21.603Z,18.90
2023-09-25T10:24:55.750Z,19.80
2023-09-25T10:27:27.784Z,19.40
2023-09-25T10:30:07.942Z,19.40
2023-09-25T10:32:40.098Z,19.30
2023-09-25T10:35:43.501Z,19.80
2023-09-25T10:38:31.132Z,19.60
2023-09-25T10:41:03.213Z,19.70
2023-09-25T10:43:32.382Z,20.30
2023-09-25T10:46:00.494Z,19.90
2023-09-25T10:48:33.317Z,20.60
2023-09-25T10:51:01.367Z,20.50
2023-09-25T10:53:30.407Z,20.20
2023-09-25T10:55:59.046Z,20.30
2023-09-25T10:58:27.947Z,21.10
2023-09-25T11:00:57.330Z,21.30
2023-09-25T11:03:26.624Z,21.60
2023-09-25T11:05:56.336Z,20.80
2023-09-25T11:08:24.783Z,21.60
2023-09-25T11:10:53.542Z,21.90
2023-09-25T11:13:22.945Z,21.70
2023-09-25T11:15:52.284Z,22.30
2023-09-25T11:18:21.898Z,21.30
2023-09-25T11:20:52.822Z,21.40
2023-09-25T11:23:23.287Z,22.80
2023-09-25T11:25:53.975Z,21.70
2023-09-25T11:28:23.567Z,22.60
2023-09-25T11:30:53.725Z,21.90
2023-09-25T11:33:24.096Z,22.00
2023-09-25T11:35:55.846Z,22.70
2023-09-25T11:38:29.348Z,22.30
2023-09-25T11:41:06.654Z,22.40
2023-09-25T11:43:35.358Z,22.50
2023-09-25T11:46:03.454Z,22.60
2023-09-25T11:48:32.033Z,22.70
2023-09-25T11:51:00.202Z,22.80
2023-09-25T11:53:30.008Z,23.00
2023-09-25T11:55:58.078Z,23.00
2023-09-25T11:58:29.958Z,23.20
2023-09-25T12:00:57.976Z,23.30
2023-09-25T12:03:26.504Z,23.40
2023-09-25T12:05:54.676Z,23.50
2023-09-25T12:08:23.413Z,23.60
2023-09-25T12:10:53.168Z,23.80
2023-09-25T12:13:22.646Z,23.90
2023-09-25T12:15:51.374Z,24.00
2023-09-25T12:18:19.889Z,24.10
2023-09-25T12:20:48.790Z,24.20
2023-09-25T12:23:17.928Z,24.30
2023-09-25T12:25:50.625Z,24.50
2023-09-25T12:28:19.971Z,24.60
2023-09-25T12:30:48.701Z,24.80
2023-09-25T12:33:20.068Z,24.90
2023-09-25T12:35:48.077Z,25.00
2023-09-25T12:38:16.928Z,25.20
2023-09-25T12:40:44.867Z,25.30
2023-09-25T12:43:13.356Z,25.40
2023-09-25T12:45:43.266Z,25.50
2023-09-25T12:48:11.930Z,25.60
2023-09-25T12:50:40.511Z,25.70
2023-09-25T12:53:08.937Z,25.90
2023-09-25T12:55:37.382Z,26.00
2023-09-25T12:58:06.327Z,26.10
2023-09-25T13:00:34.774Z,26.20
2023-09-25T13:03:04.795Z,26.30
2023-09-25T13:05:34.448Z,26.50
2023-09-25T13:08:03.211Z,26.60
2023-09-25T13:10:31.191Z,26.70
2023-09-25T13:12:59.310Z,26.80
2023-09-25T13:15:27.817Z,27.00
2023-09-25T13:17:56.286Z,27.10
2023-09-25T13:20:27.312Z,27.20
2023-09-25T13:22:55.834Z,27.30
2023-09-25T13:25:25.772Z,27.50
2023-09-25T13:27:53.797Z,27.70
2023-09-25T13:30:23.770Z,27.70
2023-09-25T13:32:51.894Z,27.90
2023-09-25T13:35:21.581Z,28.00
2023-09-25T13:37:51.391Z,28.10
2023-09-25T13:40:20.059Z,28.30
2023-09-25T13:42:48.614Z,28.40
2023-09-25T13:45:16.908Z,28.50
2023-09-25T13:47:46.007Z,28.60
2023-09-25T13:50:15.563Z,28.70
2023-09-25T13:52:43.934Z,28.90
2023-09-25T13:55:16.839Z,29.00
2023-09-25T13:57:45.093Z,29.10
2023-09-25T14:00:14.294Z,29.20
2023-09-25T14:02:43.002Z,29.30
2023-09-25T14:05:13.372Z,29.40
2023-09-25T14:07:42.080Z,29.50
2023-09-25T14:10:12.788Z,29.60
2023-09-25T14:12:42.290Z,29.80
2023-09-25T14:15:13.700Z,29.90
2023-09-25T14:17:42.515Z,30.00
2023-09-25T14:20:11.773Z,30.10
2023-09-25T14:22:41.267Z,30.20
2023-09-25T14:25:10.260Z,30.30
2023-09-25T14:27:38.751Z,30.40
2023-09-25T14:30:09.394Z,30.50
2023-09-25T14:32:38.010Z,30.70
2023-09-25T14:35:07.782Z,30.80
2023-09-25T14:37:36.329Z,30.90
2023-09-25T14:40:05.038Z,31.00
2023-09-25T14:42:34.437Z,31.10
2023-09-25T14:45:03.325Z,31.20
2023-09-25T14:47:32.841Z,31.30
2023-09-25T14:50:01.381Z,31.40
2023-09-25T14:52:30.299Z,31.50
2023-09-25T14:54:58.587Z,31.60
2023-09-25T14:57:27.293Z,31.60
2023-09-25T14:59:55.636Z,31.60
2023-09-25T15:02:24.242Z,31.70
2023-09-25T15:04:54.004Z,31.70
2023-09-25T15:07:22.575Z,31.80
2023-09-25T15:09:50.641Z,31.80
2023-09-25T15:12:21.637Z,31.80
2023-09-25T15:14:49.588Z,31.90
2023-09-25T15:17:18.045Z,31.90
2023-09-25T15:19:46.937Z,31.90
2023-09-25T15:22:16.747Z,32.00
2023-09-25T15:24:45.273Z,32.10
2023-09-25T15:27:13.280Z,32.10
2023-09-25T15:29:43.570Z,32.20
2023-09-25T15:32:12.417Z,32.20
2023-09-25T15:34:42.796Z,32.30
2023-09-25T15:37:11.625Z,32.30
2023-09-25T15:39:41.376Z,32.30
2023-09-25T15:42:09.935Z,32.30
2023-09-25T15:44:38.261Z,32.30
2023-09-25T15:47:07.633Z,32.30
2023-09-25T15:49:35.674Z,32.20
2023-09-25T15:52:03.720Z,32.20
2023-09-25T15:54:32.251Z,32.20
2023-09-25T15:57:01.591Z,32.20
2023-09-25T15:59:29.521Z,32.20
2023-09-25T16:01:58.078Z,32.10
2023-09-25T16:04:26.599Z,32.00
2023-09-25T16:06:55.185Z,31.80
2023-09-25T16:09:23.203Z,31.70
2023-09-25T16:11:51.619Z,31.50
2023-09-25T16:14:21.146Z,31.20
2023-09-25T16:16:49.949Z,31.00
2023-09-25T16:19:18.791Z,30.70
2023-09-25T16:21:47.364Z,30.40
2023-09-25T16:24:15.811Z,30.00
2023-09-25T16:26:43.691Z,29.70
2023-09-25T16:29:12.113Z,29.40
2023-09-25T16:31:42.038Z,29.10
2023-09-25T16:34:10.528Z,28.80
2023-09-25T16:36:38.572Z,28.50
2023-09-25T16:39:08.768Z,28.20
2023-09-25T16:41:37.445Z,28.00
2023-09-25T16:44:05.950Z,27.70
2023-09-25T16:46:35.367Z,27.50
2023-09-25T16:49:05.154Z,27.30
2023-09-25T16:51:33.186Z,27.10
2023-09-25T16:54:01.351Z,26.90
2023-09-25T16:56:40.175Z,27.00
2023-09-25T16:59:09.914Z,26.50
2023-09-25T17:01:38.666Z,26.30
2023-09-25T17:04:08.958Z,26.20
2023-09-25T17:06:37.754Z,26.00
2023-09-25T17:09:06.680Z,25.90
2023-09-25T17:11:34.826Z,25.80
2023-09-25T17:14:03.529Z,25.70
2023-09-25T17:16:32.380Z,25.60
2023-09-25T17:19:00.837Z,25.50
2023-09-25T17:21:32.341Z,25.50
2023-09-25T17:24:00.348Z,25.30
2023-09-25T17:26:28.421Z,25.20
2023-09-25T17:28:56.393Z,24.90
2023-09-25T17:31:26.852Z,24.80
2023-09-25T17:33:55.943Z,24.80
2023-09-25T17:36:23.949Z,24.60
2023-09-25T17:38:53.286Z,25.10
2023-09-25T17:41:21.908Z,24.30
2023-09-25T17:43:50.361Z,24.30
2023-09-25T17:46:18.516Z,24.20
2023-09-25T17:48:48.511Z,24.10
2023-09-25T17:51:17.080Z,24.10
2023-09-25T17:53:45.691Z,24.10
2023-09-25T17:56:15.470Z,24.60
2023-09-25T17:58:44.103Z,23.80
2023-09-25T18:01:12.147Z,23.80
2023-09-25T18:03:40.457Z,23.70
2023-09-25T18:06:08.741Z,23.60
2023-09-25T18:08:37.556Z,23.60
2023-09-25T18:11:05.686Z,23.50
2023-09-25T18:13:35.497Z,23.40
2023-09-25T18:16:04.562Z,23.40
2023-09-25T18:18:32.692Z,23.30
2023-09-25T18:21:01.724Z,23.50
2023-09-25T18:23:30.795Z,23.20
2023-09-25T18:26:00.648Z,23.00
2023-09-25T18:28:29.218Z,23.40
2023-09-25T18:31:01.078Z,23.20
2023-09-25T18:33:29.745Z,23.00
2023-09-25T18:35:58.626Z,23.60
2023-09-25T18:38:26.610Z,22.80
2023-09-25T18:40:56.101Z,23.10
2023-09-25T18:43:26.077Z,23.00
2023-09-25T18:45:54.685Z,23.30
2023-09-25T18:48:24.084Z,22.60
2023-09-25T18:50:52.468Z,22.60
2023-09-25T18:53:21.236Z,24.40
2023-09-25T18:55:50.107Z,22.50
2023-09-25T18:58:18.118Z,22.40
2023-09-25T19:00:48.070Z,22.40
2023-09-25T19:03:16.075Z,22.30
2023-09-25T19:05:46.247Z,22.20
2023-09-25T19:08:19.538Z,22.20
2023-09-25T19:10:48.025Z,22.20
2023-09-25T19:13:34.181Z,22.40
2023-09-25T19:16:08.326Z,22.10
2023-09-25T19:18:37.807Z,22.10
2023-09-25T19:21:07.708Z,22.10
2023-09-25T19:23:37.545Z,22.10
2023-09-25T19:26:06.306Z,21.90
2023-09-25T19:28:34.527Z,21.80
2023-09-25T19:31:03.201Z,21.80
2023-09-25T19:33:54.525Z,23.00
2023-09-25T19:36:22.885Z,21.80
2023-09-25T19:38:51.364Z,21.80
2023-09-25T19:41:19.275Z,22.30
2023-09-25T19:43:49.902Z,22.10
2023-09-25T19:46:18.773Z,22.20
2023-09-25T19:48:46.863Z,22.30
2023-09-25T19:51:15.316Z,21.60
2023-09-25T19:53:44.730Z,21.40
2023-09-25T19:56:12.819Z,22.20
2023-09-25T19:58:41.593Z,22.10
2023-09-25T20:01:14.389Z,22.20
2023-09-25T20:03:43.199Z,22.10
2023-09-25T20:06:11.717Z,21.20
2023-09-25T20:08:39.837Z,21.80
2023-09-25T20:11:09.850Z,22.80
2023-09-25T20:13:37.747Z,21.00
2023-09-25T20:16:06.052Z,21.60
2023-09-25T20:18:34.540Z,21.90
2023-09-25T20:21:02.478Z,21.60
2023-09-25T20:23:30.932Z,22.10
2023-09-25T20:25:58.953Z,21.10
2023-09-25T20:28:29.179Z,21.60
2023-09-25T20:30:57.683Z,21.60
2023-09-25T20:33:26.117Z,20.80
2023-09-25T20:35:54.024Z,20.70
2023-09-25T20:38:22.431Z,21.50
2023-09-25T20:40:50.568Z,22.00
2023-09-25T20:43:18.581Z,21.20
2023-09-25T20:45:52.581Z,21.10
2023-09-25T20:48:25.139Z,20.40
2023-09-25T20:50:53.587Z,20.40
2023-09-25T20:53:21.537Z,21.50
2023-09-25T20:55:50.455Z,21.50
2023-09-25T20:58:18.725Z,20.40
2023-09-25T21:00:48.594Z,20.50
2023-09-25T21:03:16.879Z,21.50
2023-09-25T21:05:45.359Z,20.20
2023-09-25T21:08:13.344Z,21.00
2023-09-25T21:10:41.729Z,20.10
2023-09-25T21:13:10.281Z,21.60
2023-09-25T21:15:38.880Z,19.90
2023-09-25T21:18:11.301Z,20.00
2023-09-25T21:20:39.793Z,19.90
2023-09-25T21:23:08.958Z,20.20
2023-09-25T21:25:36.930Z,20.60
2023-09-25T21:28:05.262Z,20.30
2023-09-25T21:30:33.278Z,19.80
2023-09-25T21:33:01.242Z,21.10
2023-09-25T21:35:30.537Z,19.80
2023-09-25T21:37:58.465Z,20.40
2023-09-25T21:40:26.541Z,20.50
2023-09-25T21:42:54.661Z,20.00
2023-09-25T21:45:22.600Z,19.70
2023-09-25T21:47:50.594Z,20.00
2023-09-25T21:50:20.586Z,20.20
2023-09-25T21:52:49.877Z,19.60
2023-09-25T21:55:18.100Z,20.40
2023-09-25T21:57:46.172Z,21.20
2023-09-25T22:00:18.332Z,19.80
2023-09-25T22:02:46.341Z,19.50
2023-09-25T22:05:14.425Z,19.40
2023-09-25T22:07:43.311Z,20.20
2023-09-25T22:10:14.262Z,19.30
2023-09-25T22:12:43.078Z,20.60
2023-09-25T22:15:12.754Z,19.40
2023-09-25T22:17:40.987Z,19.20
2023-09-25T22:20:13.755Z,20.40
2023-09-25T22:22:42.410Z,19.10
2023-09-25T22:25:12.716Z,19.10
2023-09-25T22:27:41.176Z,19.10
2023-09-25T22:30:10.782Z,20.50
2023-09-25T22:32:39.231Z,19.00
2023-09-25T22:35:10.692Z,19.40
2023-09-25T22:37:40.060Z,18.90
2023-09-25T22:40:28.072Z,20.30
2023-09-25T22:42:58.713Z,18.90
2023-09-25T22:45:27.260Z,20.10
2023-09-25T22:47:55.160Z,18.90
2023-09-25T22:50:23.608Z,19.70
2023-09-25T22:52:51.570Z,19.40
2023-09-25T22:55:20.010Z,18.50
2023-09-25T22:57:48.224Z,19.70
2023-09-25T23:00:24.124Z,20.30
2023-09-25T23:05:21.829Z,18.60
2023-09-25T23:07:50.282Z,18.50
2023-09-25T23:10:19.101Z,18.50
2023-09-25T23:12:48.066Z,19.70
2023-09-25T23:15:18.828Z,18.60
2023-09-25T23:17:48.125Z,19.00
2023-09-25T23:20:19.246Z,18.30
2023-09-25T23:22:48.337Z,19.30
2023-09-25T23:25:16.873Z,19.60
2023-09-25T23:27:46.106Z,18.20
2023-09-25T23:30:15.690Z,19.00
2023-09-25T23:32:47.605Z,18.20
2023-09-25T23:35:18.054Z,18.20
2023-09-25T23:37:47.668Z,19.00
2023-09-25T23:40:20.505Z,18.10
2023-09-25T23:42:48.745Z,18.50
2023-09-25T23:45:18.495Z,18.60
2023-09-25T23:47:48.966Z,18.50
2023-09-25T23:50:18.080Z,19.50
2023-09-25T23:52:48.391Z,19.20
2023-09-25T23:55:16.993Z,18.50
2023-09-25T23:57:45.510Z,17.90
